createdAt,value
2018-03-21T00:00:04.092Z,29.30
2018-03-21T00:20:36.568Z,29.30
2018-03-21T00:23:04.996Z,28.23
2018-03-21T00:25:34.032Z,29.90
2018-03-21T00:46:07.096Z,30.97
2018-03-21T00:48:35.364Z,29.93
2018-03-21T00:51:03.648Z,30.37
2018-03-21T00:53:31.956Z,32.97
2018-03-21T00:56:00.202Z,31.60
2018-03-21T00:58:29.227Z,29.57
2018-03-21T01:18:59.136Z,30.43
2018-03-21T01:21:27.432Z,32.67
2018-03-21T01:23:56.480Z,32.30
2018-03-21T01:26:24.925Z,34.60
2018-03-21T01:28:53.934Z,33.97
2018-03-21T01:31:22.205Z,33.43
2018-03-21T01:33:51.313Z,32.20
2018-03-21T01:36:19.625Z,31.17
2018-03-21T01:38:47.902Z,32.63
2018-03-21T01:59:20.833Z,31.30
2018-03-21T02:01:49.120Z,33.70
2018-03-21T02:04:17.424Z,34.60
2018-03-21T02:06:46.498Z,34.20
2018-03-21T02:27:16.959Z,30.93
2018-03-21T02:29:46.022Z,33.37
2018-03-21T02:32:14.306Z,32.93
2018-03-21T02:34:42.579Z,34.93
2018-03-21T02:37:11.029Z,33.87
2018-03-21T02:39:40.031Z,33.53
2018-03-21T02:42:08.316Z,38.30
2018-03-21T03:02:39.952Z,35.83
2018-03-21T03:23:12.390Z,33.70
2018-03-21T03:25:40.670Z,32.23
2018-03-21T03:28:08.957Z,32.30
2018-03-21T03:30:37.274Z,32.57
2018-03-21T03:33:05.563Z,31.77
2018-03-21T03:53:38.179Z,30.33
2018-03-21T03:56:08.076Z,29.90
2018-03-21T04:16:39.108Z,21.13
2018-03-21T04:19:07.511Z,20.40
2018-03-21T04:21:35.766Z,20.23
2018-03-21T04:24:04.154Z,18.43
2018-03-21T04:26:32.457Z,19.70
2018-03-21T04:47:04.981Z,17.37
2018-03-21T04:49:33.288Z,17.73
2018-03-21T04:52:02.319Z,17.43
2018-03-21T04:54:30.606Z,17.33
2018-03-21T04:56:58.909Z,14.83
2018-03-21T04:59:27.171Z,17.97
2018-03-21T05:01:55.514Z,14.93
2018-03-21T05:22:27.661Z,16.67
2018-03-21T05:42:59.343Z,17.37
2018-03-21T05:45:27.640Z,17.07
2018-03-21T05:47:55.949Z,16.57
2018-03-21T05:50:24.256Z,14.87
2018-03-21T05:52:52.581Z,13.63
2018-03-21T06:13:23.116Z,12.83
2018-03-21T06:15:51.593Z,11.27
2018-03-21T06:18:21.312Z,12.30
2018-03-21T06:38:53.479Z,9.27
2018-03-21T06:41:21.740Z,8.37
2018-03-21T06:43:49.979Z,9.90
2018-03-21T06:46:19.164Z,9.60
2018-03-21T06:48:47.438Z,8.20
2018-03-21T06:51:15.696Z,9.87
2018-03-21T06:53:44.417Z,9.37
2018-03-21T06:56:12.691Z,11.47
2018-03-21T06:58:40.964Z,9.30
2018-03-21T07:19:21.016Z,9.17
2018-03-21T07:21:49.245Z,8.50
2018-03-21T07:24:17.521Z,6.87
2018-03-21T07:44:50.440Z,8.53
2018-03-21T07:47:19.542Z,7.23
2018-03-21T07:49:48.547Z,7.13
2018-03-21T07:52:17.699Z,7.77
2018-03-21T07:54:45.926Z,6.27
2018-03-21T07:57:14.931Z,7.27
2018-03-21T08:17:47.908Z,7.57
2018-03-21T08:20:16.213Z,6.33
2018-03-21T08:22:45.241Z,8.00
2018-03-21T08:43:16.242Z,7.63
2018-03-21T08:45:44.546Z,7.13
2018-03-21T08:48:13.666Z,7.53
2018-03-21T08:50:41.944Z,6.13
2018-03-21T08:53:11.004Z,7.47
2018-03-21T08:55:39.277Z,6.63
2018-03-21T08:58:08.031Z,7.30
2018-03-21T09:00:36.350Z,7.47
2018-03-21T09:03:04.571Z,6.93
2018-03-21T09:05:32.848Z,6.80
2018-03-21T09:08:01.886Z,6.53
2018-03-21T09:10:30.151Z,7.40
2018-03-21T09:12:58.463Z,6.17
2018-03-21T09:15:26.668Z,7.33
2018-03-21T09:17:54.945Z,7.07
2018-03-21T09:20:23.202Z,6.87
2018-03-21T09:22:51.472Z,7.80
2018-03-21T09:25:19.765Z,6.83
2018-03-21T09:27:48.179Z,7.57
2018-03-21T09:30:16.492Z,7.80
2018-03-21T09:32:44.731Z,7.30
2018-03-21T09:35:13.784Z,7.90
2018-03-21T09:37:42.081Z,7.13
2018-03-21T09:40:10.404Z,7.27
2018-03-21T09:42:38.680Z,7.13
2018-03-21T09:45:06.937Z,7.20
2018-03-21T09:47:36.744Z,6.90
2018-03-21T09:50:05.240Z,7.37
2018-03-21T09:52:33.524Z,6.80
2018-03-21T09:55:01.797Z,7.07
2018-03-21T09:57:30.283Z,7.33
2018-03-21T09:59:58.556Z,6.83
2018-03-21T10:02:26.881Z,7.60
2018-03-21T10:04:56.227Z,8.90
2018-03-21T10:25:27.192Z,7.73
2018-03-21T10:27:55.517Z,7.60
2018-03-21T10:30:23.935Z,7.23
2018-03-21T10:32:52.208Z,7.73
2018-03-21T10:35:20.526Z,6.67
2018-03-21T10:37:48.794Z,7.03
2018-03-21T10:40:17.014Z,7.80
2018-03-21T10:42:46.229Z,5.50
2018-03-21T10:45:14.427Z,6.83
2018-03-21T11:05:45.765Z,6.20
2018-03-21T11:26:18.019Z,6.30
2018-03-21T11:28:46.321Z,6.30
2018-03-21T11:31:14.664Z,6.37
2018-03-21T11:33:42.935Z,6.50
2018-03-21T11:36:11.572Z,6.17
2018-03-21T11:38:39.836Z,6.00
2018-03-21T11:41:08.101Z,5.93
2018-03-21T11:43:36.617Z,5.93
2018-03-21T11:46:04.872Z,5.60
2018-03-21T11:48:33.181Z,5.70
2018-03-21T11:51:01.511Z,5.83
2018-03-21T11:53:29.779Z,5.97
2018-03-21T11:55:59.105Z,6.03
2018-03-21T11:58:28.368Z,6.27
2018-03-21T12:00:56.663Z,6.07
2018-03-21T12:21:28.405Z,7.00
2018-03-21T12:23:56.655Z,6.20
2018-03-21T12:44:31.138Z,6.10
2018-03-21T12:47:00.104Z,6.23
2018-03-21T13:07:32.219Z,5.73
2018-03-21T13:10:00.497Z,4.57
2018-03-21T13:12:28.768Z,5.47
2018-03-21T13:33:01.984Z,5.53
2018-03-21T13:35:30.211Z,5.60
2018-03-21T13:37:58.488Z,5.43
2018-03-21T13:40:27.668Z,5.17
2018-03-21T13:42:55.932Z,5.47
2018-03-21T14:03:26.755Z,4.73
2018-03-21T14:05:55.056Z,4.93
2018-03-21T14:26:26.296Z,4.30
2018-03-21T14:46:59.561Z,4.90
2018-03-21T14:49:27.890Z,4.97
2018-03-21T14:51:56.935Z,5.17
2018-03-21T14:54:25.240Z,4.93
2018-03-21T14:56:53.540Z,4.13
2018-03-21T14:59:22.531Z,4.90
2018-03-21T15:01:50.817Z,4.93
2018-03-21T15:22:22.746Z,4.53
2018-03-21T15:24:51.045Z,4.57
2018-03-21T15:27:19.307Z,4.50
2018-03-21T15:47:49.353Z,4.80
2018-03-21T15:50:17.615Z,4.60
2018-03-21T15:52:45.905Z,4.57
2018-03-21T15:55:14.408Z,4.60
2018-03-21T15:57:42.676Z,4.10
2018-03-21T16:18:15.177Z,4.60
2018-03-21T16:20:43.410Z,4.50
2018-03-21T16:23:11.688Z,4.30
2018-03-21T16:43:44.939Z,4.57
2018-03-21T16:46:13.242Z,5.03
2018-03-21T16:48:42.264Z,5.13
2018-03-21T17:09:14.059Z,4.60
2018-03-21T17:29:47.598Z,4.40
2018-03-21T17:32:15.920Z,4.97
2018-03-21T17:52:48.126Z,3.93
2018-03-21T17:55:16.653Z,4.80
2018-03-21T17:57:55.319Z,4.57
2018-03-21T18:00:23.966Z,5.00
2018-03-21T18:20:54.811Z,6.00
2018-03-21T18:41:28.045Z,5.73
2018-03-21T18:43:57.705Z,4.63
2018-03-21T18:46:26.831Z,5.97
2018-03-21T18:48:55.132Z,6.33
2018-03-21T18:51:23.435Z,5.83
2018-03-21T18:53:51.889Z,6.20
2018-03-21T18:56:20.177Z,6.03
2018-03-21T18:58:48.479Z,6.40
2018-03-21T19:01:18.279Z,5.20
2018-03-21T19:03:47.540Z,7.00
2018-03-21T19:06:15.834Z,6.70
2018-03-21T19:08:44.222Z,6.60
2018-03-21T19:11:13.071Z,6.43
2018-03-21T19:31:45.196Z,7.13
2018-03-21T19:34:14.453Z,5.50
2018-03-21T19:36:42.754Z,7.63
2018-03-21T19:39:11.097Z,8.23
2018-03-21T19:41:39.625Z,5.90
2018-03-21T19:44:07.888Z,7.50
2018-03-21T19:46:36.184Z,7.07
2018-03-21T19:49:04.645Z,5.60
2018-03-21T19:51:32.941Z,6.70
2018-03-21T19:54:01.238Z,6.80
2018-03-21T19:56:30.435Z,8.27
2018-03-21T19:58:59.488Z,12.03
2018-03-21T20:19:31.698Z,8.50
2018-03-21T20:40:04.024Z,6.17
2018-03-21T20:42:32.606Z,8.00
2018-03-21T20:45:00.869Z,8.00
2018-03-21T21:05:33.190Z,7.70
2018-03-21T21:26:06.349Z,9.40
2018-03-21T21:28:34.631Z,9.97
2018-03-21T21:31:02.883Z,8.57
2018-03-21T21:33:31.218Z,11.07
2018-03-21T21:35:59.700Z,10.40
2018-03-21T21:38:27.986Z,10.30
2018-03-21T21:40:57.106Z,11.40
2018-03-21T22:01:31.356Z,9.93
2018-03-21T22:03:59.614Z,12.03
2018-03-21T22:06:28.676Z,12.37
2018-03-21T22:08:57.218Z,12.67
2018-03-21T22:29:28.855Z,12.47
2018-03-21T22:31:57.343Z,13.13
2018-03-21T22:52:28.576Z,12.33
2018-03-21T22:54:56.850Z,12.43
2018-03-21T22:57:25.135Z,11.10
2018-03-21T22:59:53.440Z,12.30
2018-03-21T23:02:21.933Z,13.00
2018-03-21T23:22:53.458Z,12.43
2018-03-21T23:43:25.656Z,13.20
2018-03-21T23:45:53.968Z,13.43
2018-03-21T23:48:22.247Z,12.87
2018-03-21T23:50:50.544Z,14.00
2018-03-21T23:53:18.869Z,14.10
2018-03-21T23:55:47.883Z,14.23
